sensor_id;sensor_type;location;lat;lon;timestamp;pressure;altitude;pressure_sealevel;temperature;humidity
71107;BME280;58763;47.982;11.516;2023-04-16T00:00:46;93936.94;;;3.81;91.86
71107;BME280;58763;47.982;11.516;2023-04-16T00:03:13;93932.56;;;3.70;91.87
71107;BME280;58763;47.982;11.516;2023-04-16T00:05:38;93946.91;;;3.42;92.57
71107;BME280;58763;47.982;11.516;2023-04-16T00:08:04;93933.78;;;3.63;92.36
71107;BME280;58763;47.982;11.516;2023-04-16T00:10:29;93944.03;;;3.49;92.53
71107;BME280;58763;47.982;11.516;2023-04-16T00:12:55;93945.59;;;3.67;92.10
71107;BME280;58763;47.982;11.516;2023-04-16T00:15:20;93950.44;;;3.70;91.82
71107;BME280;58763;47.982;11.516;2023-04-16T00:17:46;93945.09;;;3.70;91.51
71107;BME280;58763;47.982;11.516;2023-04-16T00:20:11;93942.69;;;3.46;92.56
71107;BME280;58763;47.982;11.516;2023-04-16T00:22:36;93939.94;;;3.63;92.18
71107;BME280;58763;47.982;11.516;2023-04-16T00:25:02;93933.28;;;3.66;92.08
71107;BME280;58763;47.982;11.516;2023-04-16T00:27:28;93934.22;;;3.76;91.86
71107;BME280;58763;47.982;11.516;2023-04-16T00:29:53;93927.69;;;3.89;91.11
71107;BME280;58763;47.982;11.516;2023-04-16T00:32:19;93933.28;;;3.87;90.84
71107;BME280;58763;47.982;11.516;2023-04-16T00:34:44;93932.03;;;3.95;90.42
71107;BME280;58763;47.982;11.516;2023-04-16T00:37:09;93937.91;;;3.92;90.69
71107;BME280;58763;47.982;11.516;2023-04-16T00:39:35;93932.34;;;3.98;90.38
71107;BME280;58763;47.982;11.516;2023-04-16T00:42:00;93939.34;;;4.04;89.91
71107;BME280;58763;47.982;11.516;2023-04-16T00:44:26;93945.78;;;4.03;89.80
71107;BME280;58763;47.982;11.516;2023-04-16T00:46:52;93937.00;;;4.08;89.31
71107;BME280;58763;47.982;11.516;2023-04-16T00:49:18;93940.84;;;3.69;90.55
71107;BME280;58763;47.982;11.516;2023-04-16T00:51:43;93953.44;;;3.73;90.55
71107;BME280;58763;47.982;11.516;2023-04-16T00:54:09;93934.06;;;3.88;90.37
71107;BME280;58763;47.982;11.516;2023-04-16T00:56:35;93939.28;;;3.99;89.48
71107;BME280;58763;47.982;11.516;2023-04-16T00:59:01;93945.56;;;4.10;89.17
71107;BME280;58763;47.982;11.516;2023-04-16T01:01:26;93943.44;;;4.12;88.97
71107;BME280;58763;47.982;11.516;2023-04-16T01:03:53;93936.47;;;4.11;88.40
71107;BME280;58763;47.982;11.516;2023-04-16T01:06:19;93945.25;;;4.06;88.64
71107;BME280;58763;47.982;11.516;2023-04-16T01:08:45;93933.91;;;3.94;88.27
71107;BME280;58763;47.982;11.516;2023-04-16T01:11:13;93931.41;;;3.88;89.00
71107;BME280;58763;47.982;11.516;2023-04-16T01:13:39;93932.78;;;3.90;89.00
71107;BME280;58763;47.982;11.516;2023-04-16T01:16:10;93934.16;;;3.93;89.36
71107;BME280;58763;47.982;11.516;2023-04-16T01:18:36;93939.81;;;3.96;89.08
71107;BME280;58763;47.982;11.516;2023-04-16T01:21:02;93943.25;;;3.92;89.01
71107;BME280;58763;47.982;11.516;2023-04-16T01:23:28;93932.41;;;3.82;89.57
71107;BME280;58763;47.982;11.516;2023-04-16T01:25:54;93941.06;;;3.89;89.24
71107;BME280;58763;47.982;11.516;2023-04-16T01:28:20;93946.28;;;3.79;89.24
71107;BME280;58763;47.982;11.516;2023-04-16T01:30:45;93948.34;;;3.72;89.90
71107;BME280;58763;47.982;11.516;2023-04-16T01:33:12;93953.06;;;3.65;90.16
71107;BME280;58763;47.982;11.516;2023-04-16T01:35:38;93953.63;;;3.67;89.79
71107;BME280;58763;47.982;11.516;2023-04-16T01:38:06;93957.97;;;3.73;89.93
71107;BME280;58763;47.982;11.516;2023-04-16T01:40:32;93956.63;;;3.70;89.68
71107;BME280;58763;47.982;11.516;2023-04-16T01:42:58;93959.34;;;3.75;89.98
71107;BME280;58763;47.982;11.516;2023-04-16T01:45:24;93965.00;;;3.79;89.62
71107;BME280;58763;47.982;11.516;2023-04-16T01:47:49;93956.28;;;3.88;89.35
71107;BME280;58763;47.982;11.516;2023-04-16T01:50:16;93968.16;;;3.97;89.18
71107;BME280;58763;47.982;11.516;2023-04-16T01:52:42;93961.97;;;3.92;88.63
71107;BME280;58763;47.982;11.516;2023-04-16T01:55:08;93952.94;;;3.98;88.42
71107;BME280;58763;47.982;11.516;2023-04-16T01:57:33;93952.44;;;4.01;88.01
71107;BME280;58763;47.982;11.516;2023-04-16T01:59:59;93950.88;;;3.83;89.02
71107;BME280;58763;47.982;11.516;2023-04-16T02:02:24;93951.50;;;3.90;88.36
71107;BME280;58763;47.982;11.516;2023-04-16T02:04:53;93949.09;;;3.89;88.66
71107;BME280;58763;47.982;11.516;2023-04-16T02:07:19;93951.69;;;3.84;88.70
71107;BME280;58763;47.982;11.516;2023-04-16T02:09:45;93956.22;;;3.83;88.86
71107;BME280;58763;47.982;11.516;2023-04-16T02:12:10;93960.75;;;3.83;89.28
71107;BME280;58763;47.982;11.516;2023-04-16T02:14:36;93956.28;;;3.88;89.15
71107;BME280;58763;47.982;11.516;2023-04-16T02:17:02;93956.56;;;3.87;88.97
71107;BME280;58763;47.982;11.516;2023-04-16T02:19:27;93957.16;;;3.94;88.89
71107;BME280;58763;47.982;11.516;2023-04-16T02:21:53;93955.88;;;3.96;88.84
71107;BME280;58763;47.982;11.516;2023-04-16T02:24:19;93972.34;;;3.88;88.47
71107;BME280;58763;47.982;11.516;2023-04-16T02:26:45;93964.69;;;3.97;88.66
71107;BME280;58763;47.982;11.516;2023-04-16T02:29:11;93963.13;;;4.01;88.55
71107;BME280;58763;47.982;11.516;2023-04-16T02:31:36;93963.56;;;3.93;88.86
71107;BME280;58763;47.982;11.516;2023-04-16T02:34:03;93963.13;;;4.01;88.53
71107;BME280;58763;47.982;11.516;2023-04-16T02:36:28;93959.03;;;3.93;88.63
71107;BME280;58763;47.982;11.516;2023-04-16T02:38:54;93960.06;;;3.92;88.80
71107;BME280;58763;47.982;11.516;2023-04-16T02:41:19;93957.22;;;3.99;88.34
71107;BME280;58763;47.982;11.516;2023-04-16T02:43:45;93962.72;;;3.87;89.20
71107;BME280;58763;47.982;11.516;2023-04-16T02:46:10;93963.28;;;3.89;88.63
71107;BME280;58763;47.982;11.516;2023-04-16T02:48:35;93966.56;;;3.96;88.63
71107;BME280;58763;47.982;11.516;2023-04-16T02:51:01;93966.78;;;3.95;88.53
71107;BME280;58763;47.982;11.516;2023-04-16T02:53:26;93963.28;;;3.89;88.32
71107;BME280;58763;47.982;11.516;2023-04-16T02:55:55;93965.44;;;3.92;88.79
71107;BME280;58763;47.982;11.516;2023-04-16T02:58:22;93960.06;;;3.92;88.64
71107;BME280;58763;47.982;11.516;2023-04-16T03:00:51;93971.09;;;3.96;88.65
71107;BME280;58763;47.982;11.516;2023-04-16T03:03:17;93965.13;;;3.89;88.77
71107;BME280;58763;47.982;11.516;2023-04-16T03:05:43;93968.22;;;3.81;89.26
71107;BME280;58763;47.982;11.516;2023-04-16T03:08:08;93971.53;;;3.88;89.03
71107;BME280;58763;47.982;11.516;2023-04-16T03:10:35;93966.19;;;3.88;89.04
71107;BME280;58763;47.982;11.516;2023-04-16T03:13:01;93974.13;;;3.83;89.02
71107;BME280;58763;47.982;11.516;2023-04-16T03:15:27;93970.34;;;3.79;89.33
71107;BME280;58763;47.982;11.516;2023-04-16T03:17:53;93981.66;;;3.86;89.18
71107;BME280;58763;47.982;11.516;2023-04-16T03:20:19;93982.75;;;3.85;89.22
71107;BME280;58763;47.982;11.516;2023-04-16T03:22:45;93979.06;;;3.91;89.11
71107;BME280;58763;47.982;11.516;2023-04-16T03:25:11;93977.13;;;3.86;89.43
71107;BME280;58763;47.982;11.516;2023-04-16T03:27:37;93981.03;;;3.79;89.37
71107;BME280;58763;47.982;11.516;2023-04-16T03:30:05;93987.47;;;3.78;89.41
71107;BME280;58763;47.982;11.516;2023-04-16T03:32:31;93989.13;;;3.84;89.87
71107;BME280;58763;47.982;11.516;2023-04-16T03:34:56;93986.09;;;3.75;89.52
71107;BME280;58763;47.982;11.516;2023-04-16T03:37:22;93983.22;;;3.82;90.01
71107;BME280;58763;47.982;11.516;2023-04-16T03:39:48;93986.41;;;3.79;89.81
71107;BME280;58763;47.982;11.516;2023-04-16T03:42:13;93988.03;;;3.80;89.66
71107;BME280;58763;47.982;11.516;2023-04-16T03:44:39;93987.09;;;3.91;89.68
71107;BME280;58763;47.982;11.516;2023-04-16T03:47:05;93991.94;;;3.94;89.51
71107;BME280;58763;47.982;11.516;2023-04-16T03:49:30;93990.13;;;3.99;89.46
71107;BME280;58763;47.982;11.516;2023-04-16T03:51:56;93992.50;;;3.96;89.42
71107;BME280;58763;47.982;11.516;2023-04-16T03:54:21;93988.13;;;3.90;89.52
71107;BME280;58763;47.982;11.516;2023-04-16T03:56:46;93997.28;;;3.94;89.55
71107;BME280;58763;47.982;11.516;2023-04-16T03:59:12;94000.09;;;3.82;89.75
71107;BME280;58763;47.982;11.516;2023-04-16T04:01:37;94001.13;;;3.81;89.88
71107;BME280;58763;47.982;11.516;2023-04-16T04:04:03;94002.94;;;3.76;90.66
71107;BME280;58763;47.982;11.516;2023-04-16T04:06:28;94007.31;;;3.82;90.27
71107;BME280;58763;47.982;11.516;2023-04-16T04:08:54;94006.75;;;3.80;90.11
71107;BME280;58763;47.982;11.516;2023-04-16T04:11:19;94015.44;;;3.70;90.49
71107;BME280;58763;47.982;11.516;2023-04-16T04:13:45;94020.16;;;3.63;90.97
71107;BME280;58763;47.982;11.516;2023-04-16T04:16:10;94017.16;;;3.60;91.08
71107;BME280;58763;47.982;11.516;2023-04-16T04:18:36;94015.63;;;3.64;90.60
71107;BME280;58763;47.982;11.516;2023-04-16T04:21:05;94017.41;;;3.58;90.95
71107;BME280;58763;47.982;11.516;2023-04-16T04:23:31;94022.09;;;3.68;90.81
71107;BME280;58763;47.982;11.516;2023-04-16T04:25:56;94020.53;;;3.72;90.26
71107;BME280;58763;47.982;11.516;2023-04-16T04:28:22;94023.22;;;3.72;90.43
71107;BME280;58763;47.982;11.516;2023-04-16T04:30:47;94018.13;;;3.70;89.95
71107;BME280;58763;47.982;11.516;2023-04-16T04:33:13;94021.59;;;3.71;90.13
71107;BME280;58763;47.982;11.516;2023-04-16T04:35:38;94029.19;;;3.79;90.00
71107;BME280;58763;47.982;11.516;2023-04-16T04:38:04;94036.97;;;3.80;89.86
71107;BME280;58763;47.982;11.516;2023-04-16T04:40:29;94038.31;;;3.83;89.53
71107;BME280;58763;47.982;11.516;2023-04-16T04:42:55;94038.41;;;3.88;89.51
71107;BME280;58763;47.982;11.516;2023-04-16T04:45:20;94043.19;;;3.86;89.38
71107;BME280;58763;47.982;11.516;2023-04-16T04:47:51;94047.97;;;3.84;89.37
71107;BME280;58763;47.982;11.516;2023-04-16T04:50:16;94040.94;;;3.78;89.89
71107;BME280;58763;47.982;11.516;2023-04-16T04:52:42;94047.78;;;3.69;90.33
71107;BME280;58763;47.982;11.516;2023-04-16T04:55:07;94044.59;;;3.72;90.26
71107;BME280;58763;47.982;11.516;2023-04-16T04:57:33;94046.63;;;3.65;90.28
71107;BME280;58763;47.982;11.516;2023-04-16T04:59:58;94045.41;;;3.72;90.14
71107;BME280;58763;47.982;11.516;2023-04-16T05:02:24;94046.97;;;3.68;90.11
71107;BME280;58763;47.982;11.516;2023-04-16T05:04:49;94048.81;;;3.68;90.17
71107;BME280;58763;47.982;11.516;2023-04-16T05:07:15;94049.63;;;3.68;90.24
71107;BME280;58763;47.982;11.516;2023-04-16T05:09:41;94049.94;;;3.72;90.18
71107;BME280;58763;47.982;11.516;2023-04-16T05:12:06;94050.84;;;3.77;89.64
71107;BME280;58763;47.982;11.516;2023-04-16T05:14:32;94052.53;;;3.67;90.17
71107;BME280;58763;47.982;11.516;2023-04-16T05:16:57;94062.13;;;3.63;90.27
71107;BME280;58763;47.982;11.516;2023-04-16T05:19:23;94064.72;;;3.58;90.49
71107;BME280;58763;47.982;11.516;2023-04-16T05:21:48;94069.50;;;3.56;90.84
71107;BME280;58763;47.982;11.516;2023-04-16T05:24:14;94072.72;;;3.58;90.84
71107;BME280;58763;47.982;11.516;2023-04-16T05:26:39;94069.09;;;3.64;90.84
71107;BME280;58763;47.982;11.516;2023-04-16T05:29:04;94069.31;;;3.62;91.00
71107;BME280;58763;47.982;11.516;2023-04-16T05:31:30;94068.75;;;3.60;90.88
71107;BME280;58763;47.982;11.516;2023-04-16T05:33:55;94076.03;;;3.65;90.54
71107;BME280;58763;47.982;11.516;2023-04-16T05:36:21;94074.53;;;3.69;90.35
71107;BME280;58763;47.982;11.516;2023-04-16T05:38:46;94071.13;;;3.57;90.68
71107;BME280;58763;47.982;11.516;2023-04-16T05:41:12;94088.06;;;3.45;90.85
71107;BME280;58763;47.982;11.516;2023-04-16T05:43:37;94080.69;;;3.53;91.54
71107;BME280;58763;47.982;11.516;2023-04-16T05:46:03;94084.50;;;3.57;91.18
71107;BME280;58763;47.982;11.516;2023-04-16T05:48:28;94079.16;;;3.57;90.92
71107;BME280;58763;47.982;11.516;2023-04-16T05:50:54;94083.94;;;3.55;91.20
71107;BME280;58763;47.982;11.516;2023-04-16T05:53:19;94080.75;;;3.58;91.34
71107;BME280;58763;47.982;11.516;2023-04-16T05:55:45;94086.66;;;3.60;90.82
71107;BME280;58763;47.982;11.516;2023-04-16T05:58:11;94086.19;;;3.63;91.31
71107;BME280;58763;47.982;11.516;2023-04-16T06:00:36;94090.41;;;3.59;91.62
71107;BME280;58763;47.982;11.516;2023-04-16T06:03:02;94087.72;;;3.59;91.58
71107;BME280;58763;47.982;11.516;2023-04-16T06:05:28;94087.31;;;3.67;91.22
71107;BME280;58763;47.982;11.516;2023-04-16T06:07:55;94100.19;;;3.70;91.21
71107;BME280;58763;47.982;11.516;2023-04-16T06:10:20;94099.06;;;3.66;91.46
71107;BME280;58763;47.982;11.516;2023-04-16T06:12:46;94098.06;;;3.72;91.63
71107;BME280;58763;47.982;11.516;2023-04-16T06:15:11;94097.22;;;3.66;91.88
71107;BME280;58763;47.982;11.516;2023-04-16T06:17:37;94103.75;;;3.75;91.93
71107;BME280;58763;47.982;11.516;2023-04-16T06:20:02;94096.94;;;3.84;92.06
71107;BME280;58763;47.982;11.516;2023-04-16T06:22:29;94098.50;;;3.80;91.46
71107;BME280;58763;47.982;11.516;2023-04-16T06:24:54;94098.78;;;3.84;91.25
71107;BME280;58763;47.982;11.516;2023-04-16T06:27:20;94097.00;;;3.89;91.76
71107;BME280;58763;47.982;11.516;2023-04-16T06:29:45;94096.69;;;3.86;91.31
71107;BME280;58763;47.982;11.516;2023-04-16T06:32:11;94097.59;;;3.75;91.70
71107;BME280;58763;47.982;11.516;2023-04-16T06:34:37;94089.41;;;3.81;91.84
71107;BME280;58763;47.982;11.516;2023-04-16T06:37:03;94094.81;;;3.86;91.93
71107;BME280;58763;47.982;11.516;2023-04-16T06:39:28;94096.19;;;3.89;91.63
71107;BME280;58763;47.982;11.516;2023-04-16T06:41:54;94105.69;;;3.80;91.14
71107;BME280;58763;47.982;11.516;2023-04-16T06:44:20;94106.34;;;3.87;91.75
71107;BME280;58763;47.982;11.516;2023-04-16T06:46:45;94105.59;;;3.91;92.65
71107;BME280;58763;47.982;11.516;2023-04-16T06:49:14;94110.28;;;4.01;92.15
71107;BME280;58763;47.982;11.516;2023-04-16T06:51:42;94100.53;;;3.95;92.43
71107;BME280;58763;47.982;11.516;2023-04-16T06:54:07;94105.16;;;3.99;92.56
71107;BME280;58763;47.982;11.516;2023-04-16T06:56:33;94108.09;;;3.98;91.95
71107;BME280;58763;47.982;11.516;2023-04-16T06:58:59;94109.84;;;4.09;91.37
71107;BME280;58763;47.982;11.516;2023-04-16T07:01:25;94117.31;;;4.07;91.71
71107;BME280;58763;47.982;11.516;2023-04-16T07:03:51;94111.94;;;4.07;92.04
71107;BME280;58763;47.982;11.516;2023-04-16T07:06:16;94122.47;;;4.13;91.75
71107;BME280;58763;47.982;11.516;2023-04-16T07:08:42;94124.41;;;4.18;91.52
71107;BME280;58763;47.982;11.516;2023-04-16T07:11:07;94132.69;;;4.16;91.11
71107;BME280;58763;47.982;11.516;2023-04-16T07:13:33;94125.84;;;4.26;91.32
71107;BME280;58763;47.982;11.516;2023-04-16T07:15:58;94123.66;;;4.22;90.96
71107;BME280;58763;47.982;11.516;2023-04-16T07:18:24;94130.47;;;4.30;90.85
71107;BME280;58763;47.982;11.516;2023-04-16T07:20:49;94126.22;;;4.34;90.62
71107;BME280;58763;47.982;11.516;2023-04-16T07:23:15;94130.38;;;4.25;91.35
71107;BME280;58763;47.982;11.516;2023-04-16T07:25:40;94131.47;;;4.24;91.73
71107;BME280;58763;47.982;11.516;2023-04-16T07:28:06;94122.91;;;4.27;90.93
71107;BME280;58763;47.982;11.516;2023-04-16T07:30:32;94122.50;;;4.35;91.39
71107;BME280;58763;47.982;11.516;2023-04-16T07:33:04;94129.91;;;4.50;91.27
71107;BME280;58763;47.982;11.516;2023-04-16T07:35:30;94141.84;;;4.42;90.51
71107;BME280;58763;47.982;11.516;2023-04-16T07:37:56;94133.41;;;4.50;90.02
71107;BME280;58763;47.982;11.516;2023-04-16T07:40:22;94139.56;;;4.51;90.78
71107;BME280;58763;47.982;11.516;2023-04-16T07:42:48;94136.44;;;4.59;90.43
71107;BME280;58763;47.982;11.516;2023-04-16T07:45:13;94144.75;;;4.57;91.19
71107;BME280;58763;47.982;11.516;2023-04-16T07:47:39;94143.59;;;4.53;90.49
71107;BME280;58763;47.982;11.516;2023-04-16T07:50:05;94143.09;;;4.56;90.07
71107;BME280;58763;47.982;11.516;2023-04-16T07:52:31;94152.44;;;4.54;90.65
71107;BME280;58763;47.982;11.516;2023-04-16T07:54:56;94149.03;;;4.58;90.54
71107;BME280;58763;47.982;11.516;2023-04-16T07:57:22;94149.09;;;4.63;90.80
71107;BME280;58763;47.982;11.516;2023-04-16T07:59:47;94159.75;;;4.80;90.33
71107;BME280;58763;47.982;11.516;2023-04-16T08:02:14;94152.53;;;4.85;89.66
71107;BME280;58763;47.982;11.516;2023-04-16T08:04:41;94153.44;;;4.69;89.51
71107;BME280;58763;47.982;11.516;2023-04-16T08:07:06;94152.66;;;4.69;90.12
71107;BME280;58763;47.982;11.516;2023-04-16T08:09:32;94149.72;;;4.70;89.42
71107;BME280;58763;47.982;11.516;2023-04-16T08:11:59;94156.44;;;4.73;89.77
71107;BME280;58763;47.982;11.516;2023-04-16T08:14:24;94155.88;;;4.71;90.38
71107;BME280;58763;47.982;11.516;2023-04-16T08:16:50;94162.41;;;4.80;89.32
71107;BME280;58763;47.982;11.516;2023-04-16T08:19:16;94167.50;;;4.81;88.89
71107;BME280;58763;47.982;11.516;2023-04-16T08:21:41;94163.09;;;4.92;89.31
71107;BME280;58763;47.982;11.516;2023-04-16T08:24:07;94162.34;;;4.97;89.29
71107;BME280;58763;47.982;11.516;2023-04-16T08:26:33;94160.78;;;5.01;88.96
71107;BME280;58763;47.982;11.516;2023-04-16T08:28:58;94161.59;;;5.01;89.54
71107;BME280;58763;47.982;11.516;2023-04-16T08:31:24;94162.94;;;5.04;89.27
71107;BME280;58763;47.982;11.516;2023-04-16T08:33:49;94165.09;;;5.07;89.79
71107;BME280;58763;47.982;11.516;2023-04-16T08:36:15;94156.91;;;5.18;89.10
71107;BME280;58763;47.982;11.516;2023-04-16T08:38:40;94165.53;;;5.20;88.66
71107;BME280;58763;47.982;11.516;2023-04-16T08:41:08;94164.19;;;5.23;90.42
71107;BME280;58763;47.982;11.516;2023-04-16T08:43:37;94170.94;;;4.99;91.74
71107;BME280;58763;47.982;11.516;2023-04-16T08:46:04;94166.84;;;5.18;90.63
71107;BME280;58763;47.982;11.516;2023-04-16T08:48:32;94167.50;;;5.30;91.36
71107;BME280;58763;47.982;11.516;2023-04-16T08:50:59;94162.09;;;5.25;89.06
71107;BME280;58763;47.982;11.516;2023-04-16T08:53:31;94175.09;;;5.38;88.74
71107;BME280;58763;47.982;11.516;2023-04-16T08:56:03;94171.31;;;5.34;89.44
71107;BME280;58763;47.982;11.516;2023-04-16T08:58:30;94177.06;;;5.47;88.35
71107;BME280;58763;47.982;11.516;2023-04-16T09:01:00;94178.00;;;5.63;89.07
71107;BME280;58763;47.982;11.516;2023-04-16T09:03:28;94179.63;;;5.64;88.12
71107;BME280;58763;47.982;11.516;2023-04-16T09:05:55;94182.38;;;5.69;87.95
71107;BME280;58763;47.982;11.516;2023-04-16T09:08:21;94189.16;;;5.82;87.69
71107;BME280;58763;47.982;11.516;2023-04-16T09:10:48;94185.56;;;5.98;87.06
71107;BME280;58763;47.982;11.516;2023-04-16T09:13:14;94191.88;;;6.13;88.23
71107;BME280;58763;47.982;11.516;2023-04-16T09:15:41;94191.78;;;6.03;86.19
71107;BME280;58763;47.982;11.516;2023-04-16T09:18:09;94194.75;;;6.02;87.55
71107;BME280;58763;47.982;11.516;2023-04-16T09:20:36;94184.88;;;6.12;87.37
71107;BME280;58763;47.982;11.516;2023-04-16T09:23:02;94190.78;;;6.14;85.52
71107;BME280;58763;47.982;11.516;2023-04-16T09:25:34;94189.53;;;6.27;85.30
71107;BME280;58763;47.982;11.516;2023-04-16T09:28:01;94191.50;;;6.37;84.64
71107;BME280;58763;47.982;11.516;2023-04-16T09:30:27;94188.34;;;6.50;84.54
71107;BME280;58763;47.982;11.516;2023-04-16T09:35:48;94187.78;;;6.48;85.02
71107;BME280;58763;47.982;11.516;2023-04-16T09:38:15;94185.06;;;6.43;84.27
71107;BME280;58763;47.982;11.516;2023-04-16T09:40:40;94183.75;;;6.45;85.02
71107;BME280;58763;47.982;11.516;2023-04-16T09:43:13;94182.47;;;6.58;84.96
71107;BME280;58763;47.982;11.516;2023-04-16T09:45:52;94185.16;;;6.58;83.29
71107;BME280;58763;47.982;11.516;2023-04-16T09:48:36;94187.16;;;6.82;84.10
71107;BME280;58763;47.982;11.516;2023-04-16T09:51:04;94194.47;;;6.97;84.47
71107;BME280;58763;47.982;11.516;2023-04-16T09:53:31;94189.09;;;6.97;84.81
71107;BME280;58763;47.982;11.516;2023-04-16T09:56:01;94194.94;;;6.84;82.81
71107;BME280;58763;47.982;11.516;2023-04-16T09:58:27;94189.09;;;6.92;83.20
71107;BME280;58763;47.982;11.516;2023-04-16T10:01:05;94192.56;;;6.87;82.96
71107;BME280;58763;47.982;11.516;2023-04-16T10:03:32;94199.88;;;6.97;82.45
71107;BME280;58763;47.982;11.516;2023-04-16T10:06:15;94197.41;;;6.85;84.12
71107;BME280;58763;47.982;11.516;2023-04-16T10:08:52;94207.28;;;6.75;82.42
71107;BME280;58763;47.982;11.516;2023-04-16T10:11:20;94204.97;;;6.47;84.67
71107;BME280;58763;47.982;11.516;2023-04-16T10:13:46;94214.66;;;6.48;84.29
71107;BME280;58763;47.982;11.516;2023-04-16T10:16:12;94208.25;;;6.59;83.46
71107;BME280;58763;47.982;11.516;2023-04-16T10:18:39;94210.75;;;6.70;83.28
71107;BME280;58763;47.982;11.516;2023-04-16T10:21:06;94215.88;;;6.72;83.57
71107;BME280;58763;47.982;11.516;2023-04-16T10:23:32;94204.56;;;6.70;82.00
71107;BME280;58763;47.982;11.516;2023-04-16T10:26:00;94207.44;;;6.53;83.04
71107;BME280;58763;47.982;11.516;2023-04-16T10:28:25;94204.59;;;6.33;82.84
71107;BME280;58763;47.982;11.516;2023-04-16T10:30:54;94210.09;;;6.48;84.74
71107;BME280;58763;47.982;11.516;2023-04-16T10:33:23;94208.31;;;6.69;83.11
71107;BME280;58763;47.982;11.516;2023-04-16T10:35:51;94203.22;;;6.72;84.34
71107;BME280;58763;47.982;11.516;2023-04-16T10:38:27;94213.22;;;6.82;83.13
71107;BME280;58763;47.982;11.516;2023-04-16T10:41:01;94208.13;;;6.80;82.59
71107;BME280;58763;47.982;11.516;2023-04-16T10:43:29;94208.16;;;6.85;82.82
71107;BME280;58763;47.982;11.516;2023-04-16T10:45:54;94207.94;;;7.07;84.22
71107;BME280;58763;47.982;11.516;2023-04-16T10:48:22;94211.47;;;7.13;82.36
71107;BME280;58763;47.982;11.516;2023-04-16T10:50:55;94206.63;;;7.15;81.16
71107;BME280;58763;47.982;11.516;2023-04-16T10:53:25;94210.94;;;7.11;80.02
71107;BME280;58763;47.982;11.516;2023-04-16T10:58:31;94215.66;;;6.88;82.19
71107;BME280;58763;47.982;11.516;2023-04-16T11:00:59;94211.22;;;7.19;81.56
71107;BME280;58763;47.982;11.516;2023-04-16T11:03:31;94208.06;;;7.37;80.08
71107;BME280;58763;47.982;11.516;2023-04-16T11:06:22;94211.88;;;7.61;80.43
71107;BME280;58763;47.982;11.516;2023-04-16T11:08:50;94211.53;;;7.33;80.30
71107;BME280;58763;47.982;11.516;2023-04-16T11:11:16;94215.09;;;7.48;80.13
71107;BME280;58763;47.982;11.516;2023-04-16T11:13:43;94214.00;;;7.39;80.28
71107;BME280;58763;47.982;11.516;2023-04-16T11:16:13;94214.56;;;7.61;79.72
71107;BME280;58763;47.982;11.516;2023-04-16T11:18:39;94214.31;;;7.58;78.60
71107;BME280;58763;47.982;11.516;2023-04-16T11:21:07;94223.59;;;7.15;79.60
71107;BME280;58763;47.982;11.516;2023-04-16T11:23:50;94222.88;;;7.35;78.84
71107;BME280;58763;47.982;11.516;2023-04-16T11:26:27;94226.88;;;7.32;79.03
71107;BME280;58763;47.982;11.516;2023-04-16T11:28:54;94232.28;;;7.42;79.18
71107;BME280;58763;47.982;11.516;2023-04-16T11:31:20;94228.56;;;7.53;78.60
71107;BME280;58763;47.982;11.516;2023-04-16T11:33:48;94228.84;;;7.62;78.69
71107;BME280;58763;47.982;11.516;2023-04-16T11:36:14;94226.72;;;7.69;78.10
71107;BME280;58763;47.982;11.516;2023-04-16T11:38:39;94227.25;;;7.76;77.46
71107;BME280;58763;47.982;11.516;2023-04-16T11:41:06;94225.88;;;7.68;76.93
71107;BME280;58763;47.982;11.516;2023-04-16T11:43:31;94233.69;;;7.65;78.09
71107;BME280;58763;47.982;11.516;2023-04-16T11:45:59;94233.44;;;7.66;76.91
71107;BME280;58763;47.982;11.516;2023-04-16T11:48:27;94232.38;;;7.68;76.97
71107;BME280;58763;47.982;11.516;2023-04-16T11:51:09;94231.25;;;7.58;78.18
71107;BME280;58763;47.982;11.516;2023-04-16T11:53:35;94232.09;;;7.69;76.94
71107;BME280;58763;47.982;11.516;2023-04-16T11:56:01;94231.00;;;7.75;77.53
71107;BME280;58763;47.982;11.516;2023-04-16T11:58:27;94241.63;;;7.20;79.31
71107;BME280;58763;47.982;11.516;2023-04-16T12:00:53;94245.72;;;7.32;78.94
71107;BME280;58763;47.982;11.516;2023-04-16T12:03:41;94241.69;;;7.45;78.20
71107;BME280;58763;47.982;11.516;2023-04-16T12:06:10;94242.53;;;7.50;78.54
71107;BME280;58763;47.982;11.516;2023-04-16T12:08:35;94240.59;;;7.36;78.06
71107;BME280;58763;47.982;11.516;2023-04-16T12:11:01;94244.06;;;7.26;78.82
71107;BME280;58763;47.982;11.516;2023-04-16T12:13:26;94239.53;;;7.37;79.24
71107;BME280;58763;47.982;11.516;2023-04-16T12:15:54;94244.41;;;7.45;78.18
71107;BME280;58763;47.982;11.516;2023-04-16T12:18:22;94238.38;;;7.13;79.24
71107;BME280;58763;47.982;11.516;2023-04-16T12:20:48;94238.66;;;7.21;79.83
71107;BME280;58763;47.982;11.516;2023-04-16T12:23:31;94241.41;;;7.31;78.93
71107;BME280;58763;47.982;11.516;2023-04-16T12:25:57;94244.59;;;7.28;78.57
71107;BME280;58763;47.982;11.516;2023-04-16T12:28:33;94249.41;;;7.11;79.39
71107;BME280;58763;47.982;11.516;2023-04-16T12:30:59;94252.66;;;7.28;79.03
71107;BME280;58763;47.982;11.516;2023-04-16T12:33:25;94251.31;;;7.21;78.93
71107;BME280;58763;47.982;11.516;2023-04-16T12:35:50;94250.00;;;7.23;79.87
71107;BME280;58763;47.982;11.516;2023-04-16T12:38:17;94249.97;;;7.18;79.21
71107;BME280;58763;47.982;11.516;2023-04-16T12:40:42;94245.13;;;7.20;80.04
71107;BME280;58763;47.982;11.516;2023-04-16T12:43:08;94250.19;;;7.07;79.50
71107;BME280;58763;47.982;11.516;2023-04-16T12:45:35;94251.00;;;7.12;79.89
71107;BME280;58763;47.982;11.516;2023-04-16T12:48:00;94258.06;;;7.23;78.59
71107;BME280;58763;47.982;11.516;2023-04-16T12:50:26;94256.19;;;7.29;78.73
71107;BME280;58763;47.982;11.516;2023-04-16T12:52:54;94262.13;;;7.36;78.59
71107;BME280;58763;47.982;11.516;2023-04-16T12:55:20;94261.31;;;7.30;79.67
71107;BME280;58763;47.982;11.516;2023-04-16T12:57:46;94257.53;;;7.31;79.55
71107;BME280;58763;47.982;11.516;2023-04-16T13:00:14;94255.44;;;7.43;79.90
71107;BME280;58763;47.982;11.516;2023-04-16T13:02:40;94249.50;;;7.36;79.09